sensor_id;sensor_type;location;lat;lon;timestamp;P1;durP1;ratioP1;P2;durP2;ratioP2
21170;SDS011;10743;52.160;20.910;2023-05-07T00:02:04;150.53;;;118.03;;
21170;SDS011;10743;52.160;20.910;2023-05-07T00:04:33;58.10;;;39.97;;
21170;SDS011;10743;52.160;20.910;2023-05-07T00:07:04;146.07;;;75.33;;
21170;SDS011;10743;52.160;20.910;2023-05-07T00:09:31;158.87;;;76.30;;
21170;SDS011;10743;52.160;20.910;2023-05-07T00:11:58;144.00;;;57.80;;
21170;SDS011;10743;52.160;20.910;2023-05-07T00:14:26;156.20;;;69.20;;
21170;SDS011;10743;52.160;20.910;2023-05-07T00:16:53;152.97;;;65.17;;
21170;SDS011;10743;52.160;20.910;2023-05-07T00:19:20;176.03;;;110.57;;
21170;SDS011;10743;52.160;20.910;2023-05-07T00:21:47;140.77;;;70.57;;
21170;SDS011;10743;52.160;20.910;2023-05-07T00:24:14;147.30;;;58.20;;
21170;SDS011;10743;52.160;20.910;2023-05-07T00:26:41;158.17;;;55.43;;
21170;SDS011;10743;52.160;20.910;2023-05-07T00:29:08;161.83;;;53.00;;
21170;SDS011;10743;52.160;20.910;2023-05-07T00:31:35;157.57;;;60.27;;
21170;SDS011;10743;52.160;20.910;2023-05-07T00:34:02;158.33;;;56.33;;
21170;SDS011;10743;52.160;20.910;2023-05-07T00:36:29;154.27;;;71.50;;
21170;SDS011;10743;52.160;20.910;2023-05-07T00:38:57;137.10;;;58.33;;
21170;SDS011;10743;52.160;20.910;2023-05-07T00:41:26;144.53;;;77.30;;
21170;SDS011;10743;52.160;20.910;2023-05-07T00:43:54;149.23;;;71.33;;
21170;SDS011;10743;52.160;20.910;2023-05-07T00:46:21;155.87;;;84.77;;
21170;SDS011;10743;52.160;20.910;2023-05-07T00:48:49;156.70;;;76.30;;
21170;SDS011;10743;52.160;20.910;2023-05-07T00:51:17;149.07;;;58.67;;
21170;SDS011;10743;52.160;20.910;2023-05-07T00:53:45;147.87;;;57.20;;
21170;SDS011;10743;52.160;20.910;2023-05-07T00:56:12;151.13;;;63.83;;
21170;SDS011;10743;52.160;20.910;2023-05-07T00:58:40;155.33;;;59.80;;
21170;SDS011;10743;52.160;20.910;2023-05-07T01:01:07;150.27;;;95.03;;
21170;SDS011;10743;52.160;20.910;2023-05-07T01:03:34;160.80;;;103.27;;
21170;SDS011;10743;52.160;20.910;2023-05-07T01:06:02;181.17;;;86.20;;
21170;SDS011;10743;52.160;20.910;2023-05-07T01:08:30;215.00;;;89.97;;
21170;SDS011;10743;52.160;20.910;2023-05-07T01:10:58;212.00;;;89.53;;
21170;SDS011;10743;52.160;20.910;2023-05-07T01:13:27;202.70;;;75.23;;
21170;SDS011;10743;52.160;20.910;2023-05-07T01:15:54;194.87;;;62.13;;
21170;SDS011;10743;52.160;20.910;2023-05-07T01:18:21;206.20;;;74.37;;
21170;SDS011;10743;52.160;20.910;2023-05-07T01:20:49;190.70;;;60.37;;
21170;SDS011;10743;52.160;20.910;2023-05-07T01:23:16;203.63;;;78.27;;
21170;SDS011;10743;52.160;20.910;2023-05-07T01:25:54;215.40;;;89.20;;
21170;SDS011;10743;52.160;20.910;2023-05-07T01:28:24;200.17;;;80.27;;
21170;SDS011;10743;52.160;20.910;2023-05-07T01:30:57;212.87;;;97.23;;
21170;SDS011;10743;52.160;20.910;2023-05-07T01:33:29;197.10;;;76.63;;
21170;SDS011;10743;52.160;20.910;2023-05-07T01:36:00;200.87;;;74.80;;
21170;SDS011;10743;52.160;20.910;2023-05-07T01:38:32;212.97;;;89.77;;
21170;SDS011;10743;52.160;20.910;2023-05-07T01:40:59;199.37;;;79.43;;
21170;SDS011;10743;52.160;20.910;2023-05-07T01:43:27;207.67;;;89.80;;
21170;SDS011;10743;52.160;20.910;2023-05-07T01:45:56;194.13;;;71.97;;
21170;SDS011;10743;52.160;20.910;2023-05-07T01:48:25;200.53;;;83.17;;
21170;SDS011;10743;52.160;20.910;2023-05-07T01:50:52;200.07;;;75.60;;
21170;SDS011;10743;52.160;20.910;2023-05-07T01:53:20;192.40;;;58.13;;
21170;SDS011;10743;52.160;20.910;2023-05-07T01:55:47;215.73;;;77.40;;
21170;SDS011;10743;52.160;20.910;2023-05-07T01:58:15;196.57;;;75.50;;
21170;SDS011;10743;52.160;20.910;2023-05-07T02:00:42;205.13;;;90.20;;
21170;SDS011;10743;52.160;20.910;2023-05-07T02:03:10;223.17;;;107.70;;
21170;SDS011;10743;52.160;20.910;2023-05-07T02:05:48;227.60;;;120.70;;
21170;SDS011;10743;52.160;20.910;2023-05-07T02:08:24;200.60;;;82.33;;
21170;SDS011;10743;52.160;20.910;2023-05-07T02:10:51;205.80;;;83.40;;
21170;SDS011;10743;52.160;20.910;2023-05-07T02:13:20;203.23;;;74.03;;
21170;SDS011;10743;52.160;20.910;2023-05-07T02:15:48;200.50;;;67.63;;
21170;SDS011;10743;52.160;20.910;2023-05-07T02:18:17;229.77;;;168.20;;
21170;SDS011;10743;52.160;20.910;2023-05-07T02:20:44;208.63;;;98.40;;
21170;SDS011;10743;52.160;20.910;2023-05-07T02:23:11;205.20;;;82.93;;
21170;SDS011;10743;52.160;20.910;2023-05-07T02:25:38;206.17;;;87.27;;
21170;SDS011;10743;52.160;20.910;2023-05-07T02:28:05;200.70;;;82.73;;
21170;SDS011;10743;52.160;20.910;2023-05-07T02:30:41;196.63;;;75.73;;
21170;SDS011;10743;52.160;20.910;2023-05-07T02:33:08;196.67;;;71.47;;
21170;SDS011;10743;52.160;20.910;2023-05-07T02:35:36;194.37;;;81.37;;
21170;SDS011;10743;52.160;20.910;2023-05-07T02:38:03;187.90;;;53.83;;
21170;SDS011;10743;52.160;20.910;2023-05-07T02:40:31;219.33;;;123.90;;
21170;SDS011;10743;52.160;20.910;2023-05-07T02:42:59;193.03;;;60.60;;
21170;SDS011;10743;52.160;20.910;2023-05-07T02:45:27;206.87;;;89.20;;
21170;SDS011;10743;52.160;20.910;2023-05-07T02:47:54;212.53;;;110.53;;
21170;SDS011;10743;52.160;20.910;2023-05-07T02:50:21;194.80;;;74.83;;
21170;SDS011;10743;52.160;20.910;2023-05-07T02:52:48;226.70;;;135.33;;
21170;SDS011;10743;52.160;20.910;2023-05-07T02:55:15;212.43;;;104.70;;
21170;SDS011;10743;52.160;20.910;2023-05-07T02:57:42;217.00;;;117.20;;
21170;SDS011;10743;52.160;20.910;2023-05-07T03:00:14;210.43;;;97.07;;
21170;SDS011;10743;52.160;20.910;2023-05-07T03:03:09;205.90;;;101.93;;
21170;SDS011;10743;52.160;20.910;2023-05-07T03:05:37;213.00;;;100.70;;
21170;SDS011;10743;52.160;20.910;2023-05-07T03:08:04;194.33;;;74.10;;
21170;SDS011;10743;52.160;20.910;2023-05-07T03:10:31;199.40;;;79.80;;
21170;SDS011;10743;52.160;20.910;2023-05-07T03:12:58;219.63;;;118.83;;
21170;SDS011;10743;52.160;20.910;2023-05-07T03:15:25;209.97;;;95.73;;
21170;SDS011;10743;52.160;20.910;2023-05-07T03:17:52;217.57;;;113.00;;
21170;SDS011;10743;52.160;20.910;2023-05-07T03:20:20;230.30;;;133.53;;
21170;SDS011;10743;52.160;20.910;2023-05-07T03:22:47;203.23;;;101.40;;
21170;SDS011;10743;52.160;20.910;2023-05-07T03:25:14;196.90;;;82.03;;
21170;SDS011;10743;52.160;20.910;2023-05-07T03:27:41;188.57;;;73.20;;
21170;SDS011;10743;52.160;20.910;2023-05-07T03:30:09;191.90;;;82.53;;
21170;SDS011;10743;52.160;20.910;2023-05-07T03:32:37;185.13;;;70.33;;
21170;SDS011;10743;52.160;20.910;2023-05-07T03:35:08;184.77;;;77.37;;
21170;SDS011;10743;52.160;20.910;2023-05-07T03:37:35;185.10;;;66.27;;
21170;SDS011;10743;52.160;20.910;2023-05-07T03:40:03;174.07;;;61.10;;
21170;SDS011;10743;52.160;20.910;2023-05-07T03:42:40;178.40;;;69.93;;
21170;SDS011;10743;52.160;20.910;2023-05-07T03:45:08;197.67;;;58.50;;
21170;SDS011;10743;52.160;20.910;2023-05-07T03:47:38;192.93;;;68.87;;
21170;SDS011;10743;52.160;20.910;2023-05-07T03:50:07;203.40;;;74.30;;
21170;SDS011;10743;52.160;20.910;2023-05-07T03:52:35;185.93;;;63.77;;
21170;SDS011;10743;52.160;20.910;2023-05-07T03:55:04;188.97;;;60.97;;
21170;SDS011;10743;52.160;20.910;2023-05-07T03:57:34;224.90;;;169.63;;
21170;SDS011;10743;52.160;20.910;2023-05-07T04:00:01;191.17;;;84.00;;
21170;SDS011;10743;52.160;20.910;2023-05-07T04:02:34;214.60;;;147.20;;
21170;SDS011;10743;52.160;20.910;2023-05-07T04:05:03;178.30;;;67.17;;
21170;SDS011;10743;52.160;20.910;2023-05-07T04:07:31;189.13;;;80.60;;
21170;SDS011;10743;52.160;20.910;2023-05-07T04:09:58;196.03;;;97.07;;
21170;SDS011;10743;52.160;20.910;2023-05-07T04:12:25;194.93;;;93.37;;
21170;SDS011;10743;52.160;20.910;2023-05-07T04:14:52;205.37;;;98.73;;
21170;SDS011;10743;52.160;20.910;2023-05-07T04:17:22;188.93;;;68.70;;
21170;SDS011;10743;52.160;20.910;2023-05-07T04:19:49;178.27;;;63.27;;
21170;SDS011;10743;52.160;20.910;2023-05-07T04:22:17;183.70;;;64.83;;
21170;SDS011;10743;52.160;20.910;2023-05-07T04:24:44;186.60;;;79.03;;
21170;SDS011;10743;52.160;20.910;2023-05-07T04:27:13;190.53;;;80.07;;
21170;SDS011;10743;52.160;20.910;2023-05-07T04:29:40;185.73;;;76.47;;
21170;SDS011;10743;52.160;20.910;2023-05-07T04:32:11;184.50;;;70.17;;
21170;SDS011;10743;52.160;20.910;2023-05-07T04:34:39;167.67;;;68.23;;
21170;SDS011;10743;52.160;20.910;2023-05-07T04:37:08;162.60;;;66.53;;
21170;SDS011;10743;52.160;20.910;2023-05-07T04:39:35;171.97;;;74.80;;
21170;SDS011;10743;52.160;20.910;2023-05-07T04:42:03;168.13;;;70.03;;
21170;SDS011;10743;52.160;20.910;2023-05-07T04:44:30;164.30;;;78.37;;
21170;SDS011;10743;52.160;20.910;2023-05-07T04:46:57;158.57;;;69.67;;
21170;SDS011;10743;52.160;20.910;2023-05-07T04:49:24;156.43;;;70.53;;
21170;SDS011;10743;52.160;20.910;2023-05-07T04:51:53;161.67;;;70.97;;
21170;SDS011;10743;52.160;20.910;2023-05-07T04:54:22;161.43;;;69.37;;
21170;SDS011;10743;52.160;20.910;2023-05-07T04:56:49;160.37;;;75.90;;
21170;SDS011;10743;52.160;20.910;2023-05-07T04:59:16;160.10;;;97.17;;
21170;SDS011;10743;52.160;20.910;2023-05-07T05:01:43;143.30;;;77.93;;
21170;SDS011;10743;52.160;20.910;2023-05-07T05:04:10;146.27;;;56.40;;
21170;SDS011;10743;52.160;20.910;2023-05-07T05:06:38;121.23;;;62.67;;
21170;SDS011;10743;52.160;20.910;2023-05-07T05:09:06;70.90;;;63.93;;
21170;SDS011;10743;52.160;20.910;2023-05-07T05:11:33;155.90;;;126.40;;
21170;SDS011;10743;52.160;20.910;2023-05-07T05:14:01;40.13;;;35.53;;
21170;SDS011;10743;52.160;20.910;2023-05-07T05:16:28;57.33;;;51.40;;
21170;SDS011;10743;52.160;20.910;2023-05-07T05:18:55;55.50;;;49.77;;
21170;SDS011;10743;52.160;20.910;2023-05-07T05:21:22;36.97;;;33.00;;
21170;SDS011;10743;52.160;20.910;2023-05-07T05:23:53;42.37;;;33.87;;
21170;SDS011;10743;52.160;20.910;2023-05-07T05:26:23;22.27;;;19.93;;
21170;SDS011;10743;52.160;20.910;2023-05-07T05:28:50;59.13;;;53.27;;
21170;SDS011;10743;52.160;20.910;2023-05-07T05:31:20;71.50;;;63.97;;
21170;SDS011;10743;52.160;20.910;2023-05-07T05:33:49;57.20;;;51.33;;
21170;SDS011;10743;52.160;20.910;2023-05-07T05:36:16;70.47;;;62.87;;
21170;SDS011;10743;52.160;20.910;2023-05-07T05:38:45;90.13;;;71.80;;
21170;SDS011;10743;52.160;20.910;2023-05-07T05:41:12;60.03;;;51.33;;
21170;SDS011;10743;52.160;20.910;2023-05-07T05:43:39;62.33;;;46.63;;
21170;SDS011;10743;52.160;20.910;2023-05-07T05:46:06;70.47;;;44.00;;
21170;SDS011;10743;52.160;20.910;2023-05-07T05:48:35;86.77;;;49.53;;
21170;SDS011;10743;52.160;20.910;2023-05-07T05:51:03;68.37;;;60.90;;
21170;SDS011;10743;52.160;20.910;2023-05-07T05:53:30;75.63;;;49.10;;
21170;SDS011;10743;52.160;20.910;2023-05-07T05:55:57;71.30;;;44.10;;
21170;SDS011;10743;52.160;20.910;2023-05-07T05:58:25;49.57;;;34.37;;
21170;SDS011;10743;52.160;20.910;2023-05-07T06:00:58;52.90;;;36.47;;
21170;SDS011;10743;52.160;20.910;2023-05-07T06:03:26;39.90;;;32.43;;
21170;SDS011;10743;52.160;20.910;2023-05-07T06:05:55;39.43;;;21.57;;
21170;SDS011;10743;52.160;20.910;2023-05-07T06:08:22;41.73;;;33.23;;
21170;SDS011;10743;52.160;20.910;2023-05-07T06:10:49;39.10;;;30.23;;
21170;SDS011;10743;52.160;20.910;2023-05-07T06:13:17;50.60;;;38.67;;
21170;SDS011;10743;52.160;20.910;2023-05-07T06:15:44;59.90;;;39.70;;
21170;SDS011;10743;52.160;20.910;2023-05-07T06:18:12;45.43;;;37.60;;
21170;SDS011;10743;52.160;20.910;2023-05-07T06:20:40;52.80;;;38.93;;
21170;SDS011;10743;52.160;20.910;2023-05-07T06:23:12;57.87;;;38.53;;
21170;SDS011;10743;52.160;20.910;2023-05-07T06:25:47;56.17;;;43.43;;
21170;SDS011;10743;52.160;20.910;2023-05-07T06:28:18;42.50;;;34.20;;
21170;SDS011;10743;52.160;20.910;2023-05-07T06:30:45;39.67;;;24.77;;
21170;SDS011;10743;52.160;20.910;2023-05-07T06:33:15;30.00;;;17.57;;
21170;SDS011;10743;52.160;20.910;2023-05-07T06:35:43;65.20;;;58.40;;
21170;SDS011;10743;52.160;20.910;2023-05-07T06:38:10;96.53;;;88.30;;
21170;SDS011;10743;52.160;20.910;2023-05-07T06:40:38;27.93;;;12.20;;
21170;SDS011;10743;52.160;20.910;2023-05-07T06:43:05;207.83;;;78.20;;
21170;SDS011;10743;52.160;20.910;2023-05-07T06:45:46;61.57;;;40.30;;
21170;SDS011;10743;52.160;20.910;2023-05-07T06:48:13;201.17;;;74.53;;
21170;SDS011;10743;52.160;20.910;2023-05-07T06:50:50;26.90;;;12.20;;
21170;SDS011;10743;52.160;20.910;2023-05-07T06:53:17;193.97;;;86.47;;
21170;SDS011;10743;52.160;20.910;2023-05-07T06:55:45;129.50;;;116.33;;
21170;SDS011;10743;52.160;20.910;2023-05-07T06:58:13;215.20;;;78.57;;
21170;SDS011;10743;52.160;20.910;2023-05-07T07:00:41;214.83;;;86.30;;
21170;SDS011;10743;52.160;20.910;2023-05-07T07:03:08;51.77;;;38.87;;
21170;SDS011;10743;52.160;20.910;2023-05-07T07:05:36;90.20;;;80.93;;
21170;SDS011;10743;52.160;20.910;2023-05-07T07:08:03;220.73;;;87.07;;
21170;SDS011;10743;52.160;20.910;2023-05-07T07:10:30;226.67;;;93.07;;
21170;SDS011;10743;52.160;20.910;2023-05-07T07:12:58;211.17;;;84.00;;
21170;SDS011;10743;52.160;20.910;2023-05-07T07:15:25;205.00;;;83.43;;
21170;SDS011;10743;52.160;20.910;2023-05-07T07:17:54;201.53;;;83.07;;
21170;SDS011;10743;52.160;20.910;2023-05-07T07:20:22;189.70;;;69.20;;
21170;SDS011;10743;52.160;20.910;2023-05-07T07:22:49;194.90;;;75.67;;
21170;SDS011;10743;52.160;20.910;2023-05-07T07:25:16;191.60;;;91.53;;
21170;SDS011;10743;52.160;20.910;2023-05-07T07:27:44;178.33;;;67.70;;
21170;SDS011;10743;52.160;20.910;2023-05-07T07:30:12;173.23;;;71.63;;
21170;SDS011;10743;52.160;20.910;2023-05-07T07:32:42;150.37;;;61.77;;
21170;SDS011;10743;52.160;20.910;2023-05-07T07:35:09;109.50;;;58.27;;
21170;SDS011;10743;52.160;20.910;2023-05-07T07:37:38;156.60;;;66.83;;
21170;SDS011;10743;52.160;20.910;2023-05-07T07:40:05;180.23;;;61.07;;
21170;SDS011;10743;52.160;20.910;2023-05-07T07:42:34;183.43;;;70.90;;
21170;SDS011;10743;52.160;20.910;2023-05-07T07:45:01;184.27;;;61.30;;
21170;SDS011;10743;52.160;20.910;2023-05-07T07:47:32;141.27;;;72.27;;
21170;SDS011;10743;52.160;20.910;2023-05-07T07:49:59;140.83;;;74.30;;
21170;SDS011;10743;52.160;20.910;2023-05-07T07:52:26;142.83;;;71.07;;
21170;SDS011;10743;52.160;20.910;2023-05-07T07:54:53;142.17;;;82.43;;
21170;SDS011;10743;52.160;20.910;2023-05-07T07:57:21;133.33;;;85.67;;
21170;SDS011;10743;52.160;20.910;2023-05-07T07:59:49;150.33;;;95.10;;
21170;SDS011;10743;52.160;20.910;2023-05-07T08:02:17;127.13;;;65.10;;
21170;SDS011;10743;52.160;20.910;2023-05-07T08:04:45;147.47;;;71.40;;
21170;SDS011;10743;52.160;20.910;2023-05-07T08:07:12;154.70;;;65.10;;
21170;SDS011;10743;52.160;20.910;2023-05-07T08:09:42;162.03;;;62.40;;
21170;SDS011;10743;52.160;20.910;2023-05-07T08:12:10;143.20;;;72.67;;
21170;SDS011;10743;52.160;20.910;2023-05-07T08:14:37;153.57;;;64.37;;
21170;SDS011;10743;52.160;20.910;2023-05-07T08:17:06;142.10;;;66.67;;
21170;SDS011;10743;52.160;20.910;2023-05-07T08:19:34;166.60;;;77.97;;
21170;SDS011;10743;52.160;20.910;2023-05-07T08:22:03;163.90;;;73.23;;
21170;SDS011;10743;52.160;20.910;2023-05-07T08:24:33;163.27;;;81.30;;
21170;SDS011;10743;52.160;20.910;2023-05-07T08:27:00;198.33;;;129.77;;
21170;SDS011;10743;52.160;20.910;2023-05-07T08:29:27;94.80;;;54.90;;
21170;SDS011;10743;52.160;20.910;2023-05-07T08:31:54;104.77;;;70.57;;
21170;SDS011;10743;52.160;20.910;2023-05-07T08:34:21;121.10;;;95.43;;
21170;SDS011;10743;52.160;20.910;2023-05-07T08:36:51;107.03;;;60.13;;
21170;SDS011;10743;52.160;20.910;2023-05-07T08:39:20;105.43;;;68.60;;
21170;SDS011;10743;52.160;20.910;2023-05-07T08:41:50;104.97;;;58.93;;
21170;SDS011;10743;52.160;20.910;2023-05-07T08:44:25;107.03;;;57.20;;
21170;SDS011;10743;52.160;20.910;2023-05-07T08:46:56;97.87;;;51.97;;
21170;SDS011;10743;52.160;20.910;2023-05-07T08:49:25;107.93;;;54.73;;
21170;SDS011;10743;52.160;20.910;2023-05-07T08:51:54;98.83;;;50.13;;
21170;SDS011;10743;52.160;20.910;2023-05-07T08:54:23;104.97;;;57.43;;
21170;SDS011;10743;52.160;20.910;2023-05-07T08:56:51;99.47;;;55.57;;
21170;SDS011;10743;52.160;20.910;2023-05-07T08:59:19;95.03;;;53.77;;
21170;SDS011;10743;52.160;20.910;2023-05-07T09:01:46;97.47;;;57.27;;
21170;SDS011;10743;52.160;20.910;2023-05-07T09:04:14;122.43;;;72.03;;
21170;SDS011;10743;52.160;20.910;2023-05-07T09:06:44;91.60;;;62.13;;
21170;SDS011;10743;52.160;20.910;2023-05-07T09:09:16;99.87;;;65.13;;
21170;SDS011;10743;52.160;20.910;2023-05-07T09:11:47;92.63;;;53.50;;
21170;SDS011;10743;52.160;20.910;2023-05-07T09:14:18;94.90;;;64.03;;
21170;SDS011;10743;52.160;20.910;2023-05-07T09:16:48;113.90;;;93.23;;
21170;SDS011;10743;52.160;20.910;2023-05-07T09:19:15;109.47;;;54.13;;
21170;SDS011;10743;52.160;20.910;2023-05-07T09:21:58;100.40;;;57.47;;
21170;SDS011;10743;52.160;20.910;2023-05-07T09:24:37;134.97;;;89.80;;
21170;SDS011;10743;52.160;20.910;2023-05-07T09:27:08;142.73;;;117.97;;
21170;SDS011;10743;52.160;20.910;2023-05-07T09:29:37;115.70;;;68.50;;
21170;SDS011;10743;52.160;20.910;2023-05-07T09:32:05;120.40;;;68.43;;
21170;SDS011;10743;52.160;20.910;2023-05-07T09:34:35;79.67;;;55.87;;
21170;SDS011;10743;52.160;20.910;2023-05-07T09:37:05;100.90;;;64.10;;
21170;SDS011;10743;52.160;20.910;2023-05-07T09:39:40;100.40;;;64.67;;
21170;SDS011;10743;52.160;20.910;2023-05-07T09:42:10;108.17;;;92.30;;
21170;SDS011;10743;52.160;20.910;2023-05-07T09:44:38;106.05;;;72.25;;
21170;SDS011;10743;52.160;20.910;2023-05-07T09:47:10;103.57;;;67.75;;
21170;SDS011;10743;52.160;20.910;2023-05-07T09:49:48;154.40;;;64.63;;
21170;SDS011;10743;52.160;20.910;2023-05-07T09:52:19;66.03;;;37.00;;
21170;SDS011;10743;52.160;20.910;2023-05-07T09:54:50;44.53;;;15.03;;
21170;SDS011;10743;52.160;20.910;2023-05-07T09:57:21;29.00;;;5.78;;
21170;SDS011;10743;52.160;20.910;2023-05-07T09:59:54;18.80;;;6.22;;
21170;SDS011;10743;52.160;20.910;2023-05-07T10:02:26;28.48;;;11.43;;
21170;SDS011;10743;52.160;20.910;2023-05-07T10:05:04;28.48;;;12.38;;
21170;SDS011;10743;52.160;20.910;2023-05-07T10:07:33;117.40;;;104.57;;
21170;SDS011;10743;52.160;20.910;2023-05-07T10:10:05;31.80;;;26.27;;
21170;SDS011;10743;52.160;20.910;2023-05-07T10:12:37;44.03;;;27.98;;
21170;SDS011;10743;52.160;20.910;2023-05-07T10:15:12;156.13;;;80.23;;
21170;SDS011;10743;52.160;20.910;2023-05-07T10:17:44;219.50;;;67.77;;
21170;SDS011;10743;52.160;20.910;2023-05-07T10:20:12;226.03;;;82.50;;
21170;SDS011;10743;52.160;20.910;2023-05-07T10:22:41;175.63;;;114.13;;
21170;SDS011;10743;52.160;20.910;2023-05-07T10:25:20;248.27;;;107.47;;
21170;SDS011;10743;52.160;20.910;2023-05-07T10:28:04;221.10;;;75.40;;
21170;SDS011;10743;52.160;20.910;2023-05-07T10:33:09;89.25;;;64.13;;
21170;SDS011;10743;52.160;20.910;2023-05-07T10:35:43;136.93;;;71.80;;
21170;SDS011;10743;52.160;20.910;2023-05-07T10:38:14;88.27;;;45.20;;
21170;SDS011;10743;52.160;20.910;2023-05-07T10:40:43;123.20;;;52.60;;
21170;SDS011;10743;52.160;20.910;2023-05-07T10:43:14;204.23;;;60.73;;
21170;SDS011;10743;52.160;20.910;2023-05-07T10:46:09;213.93;;;64.97;;
21170;SDS011;10743;52.160;20.910;2023-05-07T10:49:08;221.73;;;88.13;;
21170;SDS011;10743;52.160;20.910;2023-05-07T11:01:14;218.43;;;78.37;;
21170;SDS011;10743;52.160;20.910;2023-05-07T11:15:13;207.80;;;69.60;;
21170;SDS011;10743;52.160;20.910;2023-05-07T11:17:55;209.83;;;80.53;;
21170;SDS011;10743;52.160;20.910;2023-05-07T11:26:25;217.57;;;87.53;;
21170;SDS011;10743;52.160;20.910;2023-05-07T11:28:54;207.33;;;80.60;;
21170;SDS011;10743;52.160;20.910;2023-05-07T11:31:25;235.43;;;111.07;;
21170;SDS011;10743;52.160;20.910;2023-05-07T11:33:57;218.13;;;80.07;;
21170;SDS011;10743;52.160;20.910;2023-05-07T11:36:24;218.70;;;74.60;;
21170;SDS011;10743;52.160;20.910;2023-05-07T11:39:01;218.63;;;80.07;;
21170;SDS011;10743;52.160;20.910;2023-05-07T11:41:34;232.47;;;96.07;;
21170;SDS011;10743;52.160;20.910;2023-05-07T11:44:05;218.70;;;88.63;;
21170;SDS011;10743;52.160;20.910;2023-05-07T11:46:32;225.53;;;80.53;;
21170;SDS011;10743;52.160;20.910;2023-05-07T11:49:00;219.40;;;85.23;;
21170;SDS011;10743;52.160;20.910;2023-05-07T11:51:27;218.17;;;81.83;;
21170;SDS011;10743;52.160;20.910;2023-05-07T11:53:54;224.57;;;84.20;;
21170;SDS011;10743;52.160;20.910;2023-05-07T11:56:21;202.73;;;64.83;;
21170;SDS011;10743;52.160;20.910;2023-05-07T11:58:48;215.60;;;92.87;;
21170;SDS011;10743;52.160;20.910;2023-05-07T12:01:15;229.37;;;82.03;;
21170;SDS011;10743;52.160;20.910;2023-05-07T12:03:43;238.03;;;111.63;;
21170;SDS011;10743;52.160;20.910;2023-05-07T12:06:13;236.73;;;86.50;;
21170;SDS011;10743;52.160;20.910;2023-05-07T12:08:43;210.10;;;66.77;;
21170;SDS011;10743;52.160;20.910;2023-05-07T12:11:14;224.67;;;91.23;;
21170;SDS011;10743;52.160;20.910;2023-05-07T12:13:44;233.30;;;100.20;;
21170;SDS011;10743;52.160;20.910;2023-05-07T12:16:12;268.43;;;137.77;;
21170;SDS011;10743;52.160;20.910;2023-05-07T12:18:39;205.43;;;64.53;;
21170;SDS011;10743;52.160;20.910;2023-05-07T12:21:07;209.50;;;68.73;;
21170;SDS011;10743;52.160;20.910;2023-05-07T12:23:35;216.33;;;81.40;;
21170;SDS011;10743;52.160;20.910;2023-05-07T12:26:03;221.63;;;76.33;;
21170;SDS011;10743;52.160;20.910;2023-05-07T12:28:36;210.40;;;66.37;;
21170;SDS011;10743;52.160;20.910;2023-05-07T12:31:05;214.17;;;66.27;;
21170;SDS011;10743;52.160;20.910;2023-05-07T12:33:34;235.10;;;102.73;;
21170;SDS011;10743;52.160;20.910;2023-05-07T12:36:03;214.07;;;57.90;;
21170;SDS011;10743;52.160;20.910;2023-05-07T12:38:37;216.93;;;71.73;;
21170;SDS011;10743;52.160;20.910;2023-05-07T12:41:05;228.83;;;75.67;;
21170;SDS011;10743;52.160;20.910;2023-05-07T12:43:34;213.73;;;56.57;;
21170;SDS011;10743;52.160;20.910;2023-05-07T12:46:05;215.40;;;63.23;;
21170;SDS011;10743;52.160;20.910;2023-05-07T12:48:36;210.07;;;60.67;;
21170;SDS011;10743;52.160;20.910;2023-05-07T12:51:04;224.63;;;67.73;;
21170;SDS011;10743;52.160;20.910;2023-05-07T12:53:33;220.90;;;67.17;;
21170;SDS011;10743;52.160;20.910;2023-05-07T12:56:06;212.33;;;59.33;;
21170;SDS011;10743;52.160;20.910;2023-05-07T12:58:34;227.63;;;84.87;;
21170;SDS011;10743;52.160;20.910;2023-05-07T13:01:06;201.00;;;72.47;;
21170;SDS011;10743;52.160;20.910;2023-05-07T13:03:37;208.43;;;62.17;;
21170;SDS011;10743;52.160;20.910;2023-05-07T13:06:06;201.70;;;66.87;;
21170;SDS011;10743;52.160;20.910;2023-05-07T13:08:37;217.57;;;88.40;;
21170;SDS011;10743;52.160;20.910;2023-05-07T13:11:07;215.93;;;92.43;;
21170;SDS011;10743;52.160;20.910;2023-05-07T13:13:37;214.03;;;80.73;;
21170;SDS011;10743;52.160;20.910;2023-05-07T13:16:07;210.47;;;87.37;;
21170;SDS011;10743;52.160;20.910;2023-05-07T13:18:37;214.80;;;84.50;;
21170;SDS011;10743;52.160;20.910;2023-05-07T13:21:06;220.83;;;100.63;;
21170;SDS011;10743;52.160;20.910;2023-05-07T13:23:33;209.67;;;83.97;;
21170;SDS011;10743;52.160;20.910;2023-05-07T13:26:00;215.87;;;70.83;;
21170;SDS011;10743;52.160;20.910;2023-05-07T13:28:36;212.47;;;68.43;;
21170;SDS011;10743;52.160;20.910;2023-05-07T13:31:03;219.50;;;69.03;;
21170;SDS011;10743;52.160;20.910;2023-05-07T13:33:30;217.50;;;65.67;;
21170;SDS011;10743;52.160;20.910;2023-05-07T13:35:57;210.00;;;60.43;;
21170;SDS011;10743;52.160;20.910;2023-05-07T13:38:26;228.83;;;83.67;;
21170;SDS011;10743;52.160;20.910;2023-05-07T13:40:53;220.40;;;76.63;;
21170;SDS011;10743;52.160;20.910;2023-05-07T13:43:20;222.37;;;63.90;;
21170;SDS011;10743;52.160;20.910;2023-05-07T13:45:47;222.27;;;60.63;;
21170;SDS011;10743;52.160;20.910;2023-05-07T13:48:14;213.97;;;60.57;;
21170;SDS011;10743;52.160;20.910;2023-05-07T13:50:41;218.97;;;61.60;;
21170;SDS011;10743;52.160;20.910;2023-05-07T13:53:09;223.43;;;69.67;;
21170;SDS011;10743;52.160;20.910;2023-05-07T13:55:36;379.05;;;98.95;;
21170;SDS011;10743;52.160;20.910;2023-05-07T13:58:03;216.17;;;66.07;;
21170;SDS011;10743;52.160;20.910;2023-05-07T14:00:32;222.77;;;76.57;;
21170;SDS011;10743;52.160;20.910;2023-05-07T14:02:59;205.20;;;66.13;;
21170;SDS011;10743;52.160;20.910;2023-05-07T14:05:26;226.13;;;91.95;;
21170;SDS011;10743;52.160;20.910;2023-05-07T14:07:56;210.93;;;79.43;;
21170;SDS011;10743;52.160;20.910;2023-05-07T14:10:24;217.48;;;76.05;;
21170;SDS011;10743;52.160;20.910;2023-05-07T14:12:52;226.23;;;70.43;;
21170;SDS011;10743;52.160;20.910;2023-05-07T14:15:19;199.63;;;80.67;;
21170;SDS011;10743;52.160;20.910;2023-05-07T14:17:46;318.73;;;246.10;;
21170;SDS011;10743;52.160;20.910;2023-05-07T14:20:13;216.07;;;57.40;;
21170;SDS011;10743;52.160;20.910;2023-05-07T14:22:40;206.83;;;55.87;;
21170;SDS011;10743;52.160;20.910;2023-05-07T14:25:08;211.93;;;56.13;;
21170;SDS011;10743;52.160;20.910;2023-05-07T14:27:38;209.33;;;56.67;;
21170;SDS011;10743;52.160;20.910;2023-05-07T14:30:05;221.07;;;57.77;;
21170;SDS011;10743;52.160;20.910;2023-05-07T14:32:33;214.03;;;57.63;;
21170;SDS011;10743;52.160;20.910;2023-05-07T14:35:00;211.13;;;58.50;;
21170;SDS011;10743;52.160;20.910;2023-05-07T14:37:27;218.10;;;57.13;;
21170;SDS011;10743;52.160;20.910;2023-05-07T14:39:54;209.17;;;55.77;;